Terminal Aerodrome Forecast
Issued by NWS Wilmington, NC

Home | Current Version | Previous Version | Text Only | Print | Product List | Glossary On
Versions: 1 2 3 4 5 6 7 8 9 10 11 12 13 14 15 16 17 18 19 20 21
000
FTUS42 KILM 231700
TAFILM
TAF
KILM 231731Z 2318/2418 02013G18KT 6SM -RA SCT015 BKN040 OVC080
     FM240000 01014KT 5SM -RA SCT010 BKN035 OVC070
     FM241000 01017G24KT 5SM -RA SCT007 OVC015=

USA.gov is the U.S. government's official web portal to all federal, state and local government web resources and services.